Time;durP1;ratioP1;P1;durP2;ratioP2;P2;SDS_P1;SDS_P2;PMS_P1;PMS_P2;Temp;Humidity;BMP_temperature;BMP_pressure;BME280_temperature;BME280_humidity;BME280_pressure;Samples;Min_cycle;Max_cycle;Signal;HPM_P1;HPM_P2
2023/12/25 00:00:37;;;;;;;0.60;0.43;;;10.10;99.90;;;;;;7747489;28;20234;-88
2023/12/25 00:04:23;;;;;;;0.20;0.20;;;10.10;99.90;;;;;;7744907;28;20291;-88
2023/12/25 00:08:09;;;;;;;0.70;0.60;;;10.00;99.90;;;;;;7721598;28;20399;-87
2023/12/25 00:11:54;;;;;;;2.30;0.87;;;10.10;99.90;;;;;;7746593;28;20176;-88
2023/12/25 00:15:40;;;;;;;0.50;0.50;;;10.10;99.90;;;;;;7748893;28;20287;-87
2023/12/25 00:19:26;;;;;;;0.27;0.20;;;10.20;99.90;;;;;;7747652;28;20184;-88
2023/12/25 00:23:12;;;;;;;0.20;0.20;;;10.20;99.90;;;;;;7752684;28;20612;-88
2023/12/25 00:26:57;;;;;;;0.50;0.40;;;10.10;99.90;;;;;;7745316;28;20227;-88
2023/12/25 00:30:43;;;;;;;0.67;0.30;;;10.10;99.90;;;;;;7748091;28;20175;-88
2023/12/25 00:34:29;;;;;;;0.20;0.20;;;10.10;99.90;;;;;;7747156;28;20200;-88
2023/12/25 00:38:14;;;;;;;0.20;0.20;;;10.20;99.90;;;;;;7747451;28;20195;-88
2023/12/25 00:42:00;;;;;;;0.43;0.20;;;10.10;99.90;;;;;;7747000;28;20192;-88
2023/12/25 00:45:46;;;;;;;0.63;0.30;;;10.10;99.90;;;;;;7746453;28;20494;-88
2023/12/25 00:49:31;;;;;;;0.30;0.30;;;10.10;99.90;;;;;;7748119;28;20185;-89
2023/12/25 00:53:17;;;;;;;0.20;0.20;;;10.20;99.90;;;;;;7761540;28;20196;-88
2023/12/25 00:57:03;;;;;;;0.20;0.20;;;10.20;99.90;;;;;;7750332;28;20184;-88
2023/12/25 01:00:48;;;;;;;3.30;0.40;;;10.10;99.90;;;;;;7752906;28;20258;-88
2023/12/25 01:04:34;;;;;;;1.53;0.30;;;10.20;99.90;;;;;;7759740;28;20195;-88
2023/12/25 01:08:20;;;;;;;0.73;0.40;;;10.20;99.90;;;;;;7746916;28;20295;-88
2023/12/25 01:12:05;;;;;;;1.00;0.30;;;10.10;99.90;;;;;;7744578;28;20176;-88
2023/12/25 01:15:51;;;;;;;1.77;1.10;;;10.20;99.90;;;;;;7736460;28;20764;-89
2023/12/25 01:19:36;;;;;;;0.67;0.50;;;10.20;99.90;;;;;;7749192;28;20176;-88
2023/12/25 01:23:22;;;;;;;0.57;0.40;;;10.20;99.90;;;;;;7744582;28;20285;-88
2023/12/25 01:27:08;;;;;;;1.10;0.50;;;10.20;99.90;;;;;;7765706;28;20298;-88
2023/12/25 01:30:54;;;;;;;1.07;0.40;;;10.20;99.90;;;;;;7761843;28;20210;-87
2023/12/25 01:34:39;;;;;;;2.10;0.50;;;10.20;99.90;;;;;;7744544;28;20203;-88
2023/12/25 01:38:25;;;;;;;0.77;0.43;;;10.20;99.90;;;;;;7744693;28;20184;-88
2023/12/25 01:42:11;;;;;;;0.50;0.23;;;10.20;99.90;;;;;;7744532;28;20478;-88
2023/12/25 01:45:56;;;;;;;1.23;0.40;;;10.20;99.90;;;;;;7747174;28;20299;-89
2023/12/25 01:49:42;;;;;;;1.67;0.30;;;10.20;99.90;;;;;;7750289;28;20187;-88
2023/12/25 01:53:28;;;;;;;0.37;0.30;;;10.20;99.90;;;;;;7754203;28;20639;-88
2023/12/25 01:57:13;;;;;;;0.50;0.43;;;10.30;99.90;;;;;;7753699;28;20538;-88
2023/12/25 02:00:59;;;;;;;0.60;0.40;;;10.20;99.90;;;;;;7751825;28;20191;-88
2023/12/25 02:04:44;;;;;;;1.20;0.50;;;10.20;99.90;;;;;;7745067;28;20207;-89
2023/12/25 02:08:30;;;;;;;0.83;0.30;;;10.20;99.90;;;;;;7748892;28;20184;-89
2023/12/25 02:12:16;;;;;;;0.40;0.40;;;10.20;99.90;;;;;;7748572;28;20287;-88
2023/12/25 02:16:03;;;;;;;0.50;0.37;;;10.20;99.90;;;;;;7767418;28;20215;-88
2023/12/25 02:19:49;;;;;;;1.10;0.40;;;10.20;99.90;;;;;;7770539;28;20183;-88
2023/12/25 02:23:37;;;;;;;1.37;0.30;;;10.20;99.90;;;;;;7753365;28;20218;-88
2023/12/25 02:27:23;;;;;;;0.97;0.40;;;10.20;99.90;;;;;;7753540;28;20208;-88
2023/12/25 02:31:08;;;;;;;0.53;0.50;;;10.10;99.90;;;;;;7761344;28;20225;-88
2023/12/25 02:34:54;;;;;;;0.70;0.50;;;10.20;99.90;;;;;;7766281;28;20248;-88
2023/12/25 02:38:40;;;;;;;0.80;0.50;;;10.20;99.90;;;;;;7751176;28;20188;-88
2023/12/25 02:42:25;;;;;;;0.87;0.43;;;10.10;99.90;;;;;;7754727;28;20251;-88
2023/12/25 02:46:11;;;;;;;0.60;0.50;;;10.10;99.90;;;;;;7757911;28;20270;-88
2023/12/25 02:49:56;;;;;;;0.57;0.40;;;10.10;99.90;;;;;;7750261;28;20184;-89
2023/12/25 02:53:42;;;;;;;1.13;0.50;;;10.10;99.90;;;;;;7755273;28;20200;-88
2023/12/25 02:57:28;;;;;;;1.10;0.30;;;10.10;99.90;;;;;;7760978;28;20196;-88
2023/12/25 03:01:14;;;;;;;0.67;0.47;;;10.10;99.90;;;;;;7769169;28;20183;-88
2023/12/25 03:05:00;;;;;;;0.67;0.43;;;10.20;99.90;;;;;;7771031;28;20906;-87
2023/12/25 03:08:45;;;;;;;0.87;0.53;;;10.10;99.90;;;;;;7756936;28;20175;-87
2023/12/25 03:12:31;;;;;;;1.90;0.30;;;10.10;99.90;;;;;;7755096;28;20352;-88
2023/12/25 03:16:19;;;;;;;3.03;0.50;;;10.20;99.90;;;;;;7775164;28;20235;-88
2023/12/25 03:20:05;;;;;;;0.40;0.30;;;10.10;99.90;;;;;;7774544;28;20180;-88
2023/12/25 03:23:51;;;;;;;0.60;0.33;;;10.20;99.90;;;;;;7750996;28;20223;-88
2023/12/25 03:27:37;;;;;;;1.00;0.47;;;10.20;99.90;;;;;;7766754;28;20290;-88
2023/12/25 03:31:22;;;;;;;0.20;0.20;;;10.20;99.90;;;;;;7748956;28;20253;-88
2023/12/25 03:35:08;;;;;;;0.70;0.30;;;10.20;99.90;;;;;;7753518;28;20231;-88
2023/12/25 03:38:54;;;;;;;2.00;0.47;;;10.20;99.90;;;;;;7749922;28;20633;-88
2023/12/25 03:42:39;;;;;;;1.50;0.50;;;10.20;99.90;;;;;;7760219;28;20191;-88
2023/12/25 03:46:25;;;;;;;3.07;0.37;;;10.30;99.90;;;;;;7774801;28;20716;-88
2023/12/25 03:50:10;;;;;;;0.40;0.40;;;10.30;99.90;;;;;;7774920;28;20188;-88
2023/12/25 03:53:56;;;;;;;0.20;0.20;;;10.30;99.90;;;;;;7755621;28;20207;-88
2023/12/25 03:57:42;;;;;;;0.60;0.30;;;10.20;99.90;;;;;;7756706;28;20187;-88
2023/12/25 04:01:27;;;;;;;0.50;0.30;;;10.30;99.90;;;;;;7747035;28;20680;-88
2023/12/25 04:05:13;;;;;;;1.43;0.50;;;10.30;99.90;;;;;;7748368;28;20650;-88
2023/12/25 04:08:59;;;;;;;0.57;0.40;;;10.30;99.90;;;;;;7774328;28;20212;-88
2023/12/25 04:12:44;;;;;;;1.60;0.40;;;10.20;99.90;;;;;;7760660;28;20180;-88
2023/12/25 04:16:30;;;;;;;0.77;0.50;;;10.20;99.90;;;;;;7753879;28;20234;-86
2023/12/25 04:20:16;;;;;;;1.40;0.20;;;10.30;99.90;;;;;;7752090;28;20184;-87
2023/12/25 04:24:01;;;;;;;0.33;0.33;;;10.20;99.90;;;;;;7752348;28;20211;-86
2023/12/25 04:27:47;;;;;;;1.60;0.30;;;10.20;99.90;;;;;;7754692;28;20267;-87
2023/12/25 04:31:33;;;;;;;1.67;0.47;;;10.20;99.90;;;;;;7784284;28;20191;-87
2023/12/25 04:35:18;;;;;;;2.47;0.40;;;10.20;99.90;;;;;;7759692;28;20712;-86
2023/12/25 04:39:05;;;;;;;0.57;0.20;;;10.10;99.90;;;;;;7751777;28;20180;-86
2023/12/25 04:42:51;;;;;;;1.23;0.10;;;10.20;99.90;;;;;;7751825;28;20212;-87
2023/12/25 04:46:39;;;;;;;0.47;0.20;;;10.20;99.90;;;;;;7751822;28;20199;-86
2023/12/25 04:50:25;;;;;;;0.20;0.20;;;10.20;99.90;;;;;;7773112;28;20176;-87
2023/12/25 04:54:11;;;;;;;0.87;0.20;;;10.30;99.90;;;;;;7763289;28;20657;-86
2023/12/25 04:57:56;;;;;;;1.37;0.20;;;10.20;99.90;;;;;;7780276;28;20671;-87
2023/12/25 05:01:42;;;;;;;0.53;0.30;;;10.20;99.90;;;;;;7767246;28;20279;-86
2023/12/25 05:05:28;;;;;;;0.90;0.20;;;10.20;99.90;;;;;;7769345;28;20287;-87
2023/12/25 05:09:13;;;;;;;0.70;0.20;;;10.20;99.90;;;;;;7755672;28;20171;-87
2023/12/25 05:13:00;;;;;;;0.10;0.10;;;10.20;99.90;;;;;;7773293;28;20175;-87
2023/12/25 05:16:45;;;;;;;0.10;0.10;;;10.30;99.90;;;;;;7767561;28;20184;-87
2023/12/25 05:20:31;;;;;;;0.13;0.10;;;10.30;99.90;;;;;;7751747;28;20637;-86
2023/12/25 05:24:16;;;;;;;0.20;0.10;;;10.30;99.90;;;;;;7774387;28;20632;-87
2023/12/25 05:28:02;;;;;;;0.47;0.10;;;10.30;99.90;;;;;;7777590;28;20728;-87
2023/12/25 05:31:48;;;;;;;0.20;0.20;;;10.30;99.90;;;;;;7751221;28;20668;-87
2023/12/25 05:35:34;;;;;;;0.50;0.10;;;10.30;99.90;;;;;;7751364;28;20208;-86
2023/12/25 05:39:20;;;;;;;0.10;0.10;;;10.40;99.90;;;;;;7750903;28;20184;-87
2023/12/25 05:43:10;;;;;;;0.30;0.20;;;10.30;99.90;;;;;;7751825;28;20634;-86
2023/12/25 05:46:56;;;;;;;0.20;0.20;;;10.30;99.90;;;;;;7751724;28;20200;-86
2023/12/25 05:50:41;;;;;;;0.77;0.17;;;10.30;99.90;;;;;;7750807;28;20184;-86
2023/12/25 05:54:27;;;;;;;0.10;0.10;;;10.30;99.90;;;;;;7751940;28;20199;-87
2023/12/25 05:58:13;;;;;;;2.30;0.40;;;10.30;99.90;;;;;;7750530;28;20210;-87
2023/12/25 06:02:00;;;;;;;1.03;0.90;;;10.30;99.90;;;;;;7751749;28;20230;-88
2023/12/25 06:05:45;;;;;;;2.93;0.60;;;10.40;99.90;;;;;;7761205;28;20748;-87
2023/12/25 06:09:31;;;;;;;8.17;3.90;;;10.40;99.90;;;;;;7750050;28;20554;-87
2023/12/25 06:13:17;;;;;;;2.57;0.50;;;10.40;99.90;;;;;;7751816;28;20207;-88
2023/12/25 06:17:04;;;;;;;0.50;0.20;;;10.30;99.90;;;;;;7778283;28;20179;-86
2023/12/25 06:20:49;;;;;;;0.30;0.10;;;10.30;99.90;;;;;;7756009;28;20196;-87
2023/12/25 06:24:35;;;;;;;0.30;0.20;;;10.40;99.90;;;;;;7751404;28;20250;-87
2023/12/25 06:28:21;;;;;;;0.10;0.10;;;10.40;99.90;;;;;;7761788;28;20238;-86
2023/12/25 06:32:06;;;;;;;0.37;0.20;;;10.40;99.90;;;;;;7781322;28;20176;-87
2023/12/25 06:35:52;;;;;;;0.20;0.10;;;10.40;99.90;;;;;;7781354;28;20213;-87
2023/12/25 06:39:37;;;;;;;0.20;0.20;;;10.50;99.90;;;;;;7781667;28;20175;-88
2023/12/25 06:43:23;;;;;;;0.37;0.23;;;10.50;99.90;;;;;;7782271;28;20198;-87
2023/12/25 06:47:10;;;;;;;0.20;0.20;;;10.50;99.90;;;;;;7781486;28;20207;-87
2023/12/25 06:50:55;;;;;;;0.30;0.30;;;10.50;99.90;;;;;;7780840;28;20171;-88
2023/12/25 06:54:41;;;;;;;0.87;0.10;;;10.50;99.90;;;;;;7781011;28;20293;-87
2023/12/25 06:58:27;;;;;;;1.23;0.17;;;10.50;99.90;;;;;;7781301;28;20551;-87
2023/12/25 07:02:12;;;;;;;0.20;0.20;;;10.50;99.90;;;;;;7757452;28;20223;-88
2023/12/25 07:05:58;;;;;;;0.13;0.10;;;10.50;99.90;;;;;;7752840;28;20266;-87
2023/12/25 07:09:43;;;;;;;0.57;0.17;;;10.50;99.90;;;;;;7779864;28;20175;-87
2023/12/25 07:13:33;;;;;;;0.33;0.20;;;10.50;99.90;;;;;;7752449;28;20692;-88
2023/12/25 07:17:19;;;;;;;0.07;0.07;;;10.50;99.90;;;;;;7752953;28;20180;-86
2023/12/25 07:21:04;;;;;;;0.10;0.10;;;10.50;99.90;;;;;;7757113;28;20262;-87
2023/12/25 07:24:50;;;;;;;0.37;0.20;;;10.60;99.90;;;;;;7758435;28;20200;-87
2023/12/25 07:28:36;;;;;;;0.20;0.20;;;10.60;99.90;;;;;;7752691;28;20664;-87
2023/12/25 07:32:22;;;;;;;0.63;0.20;;;10.60;99.90;;;;;;7759536;28;20183;-86
2023/12/25 07:36:07;;;;;;;0.77;0.17;;;10.60;99.90;;;;;;7766884;28;20210;-87
2023/12/25 07:39:53;;;;;;;0.10;0.10;;;10.60;99.90;;;;;;7749223;28;20183;-86
2023/12/25 07:43:39;;;;;;;0.20;0.10;;;10.60;99.90;;;;;;7759390;28;20212;-87
2023/12/25 07:47:25;;;;;;;0.10;0.10;;;10.60;99.90;;;;;;7753399;28;20291;-87
2023/12/25 07:51:16;;;;;;;0.10;0.10;;;10.60;99.90;;;;;;7753773;28;20603;-87
2023/12/25 07:55:03;;;;;;;0.50;0.20;;;10.60;99.90;;;;;;7754730;28;20568;-87
2023/12/25 07:58:48;;;;;;;0.20;0.20;;;10.60;99.90;;;;;;7756266;28;20199;-86
2023/12/25 08:02:34;;;;;;;0.20;0.20;;;10.60;99.90;;;;;;7765497;28;20184;-87
2023/12/25 08:06:20;;;;;;;0.30;0.30;;;10.50;99.90;;;;;;7785510;28;20210;-91
2023/12/25 08:10:06;;;;;;;0.73;0.43;;;10.60;99.90;;;;;;7773151;28;20179;-87
2023/12/25 08:13:51;;;;;;;0.40;0.40;;;10.60;99.90;;;;;;7757583;28;20239;-88
2023/12/25 08:17:37;;;;;;;0.47;0.47;;;10.60;99.90;;;;;;7754574;28;20602;-87
2023/12/25 08:21:23;;;;;;;2.37;0.37;;;10.60;99.90;;;;;;7761281;28;20176;-89
2023/12/25 08:25:09;;;;;;;0.93;0.30;;;10.60;99.90;;;;;;7745898;28;20234;-90
2023/12/25 08:28:55;;;;;;;0.40;0.40;;;10.60;99.90;;;;;;7747676;28;20191;-88
2023/12/25 08:32:40;;;;;;;0.73;0.40;;;10.70;99.90;;;;;;7748052;28;20230;-89
2023/12/25 08:36:27;;;;;;;0.77;0.33;;;10.70;99.90;;;;;;7747288;28;20213;-88
2023/12/25 08:40:13;;;;;;;0.20;0.20;;;10.70;99.90;;;;;;7741840;28;20188;-90
2023/12/25 08:43:58;;;;;;;1.53;0.40;;;10.70;99.90;;;;;;7745288;28;20234;-90
2023/12/25 08:47:44;;;;;;;0.20;0.20;;;10.70;99.90;;;;;;7739471;28;20204;-89
2023/12/25 08:51:29;;;;;;;0.47;0.40;;;10.60;99.90;;;;;;7755021;28;20271;-89
2023/12/25 08:55:16;;;;;;;0.50;0.30;;;10.60;99.90;;;;;;7751359;28;20290;-90
2023/12/25 08:59:05;;;;;;;0.60;0.43;;;10.70;99.90;;;;;;7748235;28;20263;-89
2023/12/25 09:02:51;;;;;;;0.97;0.60;;;10.70;99.90;;;;;;7746656;28;20282;-89
2023/12/25 09:06:36;;;;;;;0.40;0.30;;;10.70;99.90;;;;;;7745798;28;20204;-88
2023/12/25 09:10:22;;;;;;;0.27;0.23;;;10.70;99.90;;;;;;7759465;28;20191;-89
2023/12/25 09:14:08;;;;;;;0.67;0.43;;;10.70;99.90;;;;;;7759735;28;20208;-89
2023/12/25 09:17:57;;;;;;;0.30;0.30;;;10.70;99.90;;;;;;7745788;28;20680;-90
2023/12/25 09:21:43;;;;;;;0.90;0.40;;;10.70;99.90;;;;;;7755096;28;20196;-88
2023/12/25 09:25:31;;;;;;;0.37;0.37;;;10.70;99.90;;;;;;7745432;28;20875;-89
2023/12/25 09:29:16;;;;;;;0.27;0.20;;;10.80;99.90;;;;;;7752078;28;20187;-89
2023/12/25 09:33:03;;;;;;;0.43;0.30;;;10.80;99.90;;;;;;7753974;28;20188;-89
2023/12/25 09:36:51;;;;;;;2.23;1.70;;;10.80;99.90;;;;;;7743633;28;20196;-89
2023/12/25 09:40:36;;;;;;;2.73;1.80;;;10.80;99.90;;;;;;7765202;28;20187;-89
2023/12/25 09:44:23;;;;;;;3.43;1.40;;;10.90;99.90;;;;;;7739176;28;20216;-90
2023/12/25 09:48:08;;;;;;;4.20;2.17;;;10.90;99.90;;;;;;7767595;28;20257;-88
2023/12/25 09:51:57;;;;;;;3.00;1.57;;;10.90;99.90;;;;;;7764820;28;20204;-90
2023/12/25 09:55:46;;;;;;;0.60;0.50;;;10.90;99.90;;;;;;7759420;28;20760;-88
2023/12/25 09:59:32;;;;;;;1.13;1.03;;;10.90;99.90;;;;;;7744900;28;20192;-89
2023/12/25 10:03:20;;;;;;;0.80;0.80;;;10.90;99.90;;;;;;7766220;28;20589;-89
2023/12/25 10:07:06;;;;;;;1.00;0.90;;;10.90;99.90;;;;;;7749742;28;20223;-89
2023/12/25 10:10:55;;;;;;;1.33;1.10;;;10.90;99.90;;;;;;7750365;28;20203;-88
2023/12/25 10:14:41;;;;;;;0.37;0.33;;;10.90;99.90;;;;;;7763318;28;20298;-89
2023/12/25 10:18:27;;;;;;;1.70;0.30;;;10.90;99.90;;;;;;7780571;28;20194;-90
2023/12/25 10:22:28;;;;;;;1.07;0.30;;;10.80;99.90;;;;;;7750524;28;20268;-89
2023/12/25 10:26:30;;;;;;;0.40;0.40;;;10.60;99.90;;;;;;7732049;28;20253;-89
2023/12/25 10:30:21;;;;;;;1.63;1.20;;;10.50;99.90;;;;;;7728781;28;20279;-90
2023/12/25 10:34:07;;;;;;;2.60;1.10;;;10.30;99.90;;;;;;7753223;28;20583;-89
2023/12/25 10:37:53;;;;;;;1.70;1.13;;;10.20;99.90;;;;;;7744568;28;20181;-89
2023/12/25 10:41:39;;;;;;;1.23;1.10;;;10.20;99.90;;;;;;7743906;28;20234;-89
2023/12/25 10:45:28;;;;;;;1.33;0.93;;;10.10;99.90;;;;;;7751352;28;20306;-89
2023/12/25 10:49:14;;;;;;;1.80;1.40;;;10.10;99.90;;;;;;7747203;28;20188;-89
2023/12/25 10:53:03;;;;;;;1.13;1.00;;;10.00;99.90;;;;;;7750576;28;20195;-91
2023/12/25 10:56:50;;;;;;;1.23;0.97;;;10.10;99.90;;;;;;7749742;28;20725;-89
2023/12/25 11:00:43;;;;;;;0.77;0.63;;;10.10;99.90;;;;;;7759423;28;20233;-89
2023/12/25 11:04:30;;;;;;;3.33;0.90;;;10.20;99.90;;;;;;7749155;28;20250;-90
2023/12/25 11:08:19;;;;;;;1.83;1.10;;;10.20;99.90;;;;;;7750198;28;20207;-89
2023/12/25 11:12:05;;;;;;;6.93;3.17;;;10.20;99.90;;;;;;7759617;28;20262;-90
2023/12/25 11:15:52;;;;;;;5.27;2.87;;;10.20;99.90;;;;;;7753414;28;20223;-91
2023/12/25 11:19:37;;;;;;;2.30;1.33;;;10.20;99.90;;;;;;7748231;28;20658;-89
2023/12/25 11:23:23;;;;;;;1.70;1.13;;;10.30;99.90;;;;;;7745592;28;20649;-88
2023/12/25 11:27:11;;;;;;;1.30;1.20;;;10.30;99.90;;;;;;7743190;28;20235;-90
2023/12/25 11:30:57;;;;;;;0.53;0.50;;;10.30;99.90;;;;;;7756010;28;20184;-90
2023/12/25 11:34:43;;;;;;;1.70;1.00;;;10.30;99.90;;;;;;7748350;28;20204;-89
2023/12/25 11:38:30;;;;;;;0.53;0.30;;;10.30;99.90;;;;;;7743710;28;20255;-87
2023/12/25 11:42:15;;;;;;;0.53;0.53;;;10.30;99.90;;;;;;7744019;28;20184;-90
2023/12/25 11:46:02;;;;;;;0.47;0.47;;;10.30;99.90;;;;;;7760609;28;20879;-90
2023/12/25 11:49:48;;;;;;;1.70;1.30;;;10.20;99.90;;;;;;7749193;28;20192;-88
2023/12/25 11:53:39;;;;;;;1.67;1.43;;;10.20;99.90;;;;;;7748739;28;20266;-89
2023/12/25 11:57:29;;;;;;;3.40;1.20;;;10.20;99.90;;;;;;7742780;28;20181;-90
2023/12/25 12:01:19;;;;;;;3.07;1.27;;;10.20;99.90;;;;;;7743730;28;20234;-88
2023/12/25 12:05:05;;;;;;;2.30;1.60;;;10.20;99.90;;;;;;7746700;28;20203;-89
2023/12/25 12:08:52;;;;;;;2.33;1.30;;;10.30;99.90;;;;;;7748721;28;20180;-89
2023/12/25 12:12:39;;;;;;;0.70;0.37;;;10.30;99.90;;;;;;7748650;28;20255;-90
2023/12/25 12:16:27;;;;;;;0.77;0.57;;;10.40;99.90;;;;;;7747011;28;20265;-90
2023/12/25 12:20:13;;;;;;;0.40;0.40;;;10.30;99.90;;;;;;7757896;28;20255;-89
2023/12/25 12:23:58;;;;;;;0.60;0.40;;;10.30;99.90;;;;;;7726948;28;20214;-90
2023/12/25 12:27:44;;;;;;;1.30;0.60;;;10.30;99.90;;;;;;7756177;28;20214;-90
2023/12/25 12:31:30;;;;;;;0.60;0.30;;;10.20;99.90;;;;;;7761831;28;20256;-89
2023/12/25 12:35:18;;;;;;;0.77;0.50;;;10.20;99.90;;;;;;7746669;28;20665;-90
2023/12/25 12:39:04;;;;;;;1.03;0.70;;;10.20;99.90;;;;;;7748479;28;20547;-90
2023/12/25 12:42:51;;;;;;;4.00;1.73;;;10.10;99.90;;;;;;7751754;28;20175;-89
2023/12/25 12:46:37;;;;;;;0.83;0.50;;;10.00;99.90;;;;;;7748322;28;20206;-89
2023/12/25 12:50:23;;;;;;;0.50;0.50;;;9.90;99.90;;;;;;7738044;28;20654;-90
2023/12/25 12:54:08;;;;;;;0.73;0.40;;;9.80;99.90;;;;;;7731863;28;20254;-89
2023/12/25 12:57:54;;;;;;;0.83;0.60;;;9.70;99.90;;;;;;7748192;28;20270;-89
2023/12/25 13:01:40;;;;;;;1.70;0.53;;;9.70;99.90;;;;;;7748781;28;20191;-89
2023/12/25 13:05:25;;;;;;;1.27;0.80;;;9.60;99.90;;;;;;7748098;28;20229;-89
2023/12/25 13:09:11;;;;;;;0.93;0.50;;;9.60;99.90;;;;;;7761519;28;20207;-89
2023/12/25 13:12:57;;;;;;;0.87;0.53;;;9.60;99.90;;;;;;7748236;28;20273;-89
2023/12/25 13:16:45;;;;;;;6.13;3.70;;;9.60;99.90;;;;;;7754868;28;20188;-90
2023/12/25 13:20:30;;;;;;;3.43;2.40;;;9.60;99.90;;;;;;7753036;28;20646;-90
2023/12/25 13:24:16;;;;;;;11.63;6.53;;;9.70;99.90;;;;;;7749346;28;20572;-89
2023/12/25 13:28:02;;;;;;;4.73;2.60;;;9.70;99.90;;;;;;7745660;28;20250;-89
2023/12/25 13:31:48;;;;;;;5.23;3.20;;;9.60;99.90;;;;;;7747695;28;20184;-89
2023/12/25 13:35:34;;;;;;;3.43;2.80;;;9.60;99.90;;;;;;7745344;28;20204;-89
2023/12/25 13:39:20;;;;;;;1.63;0.90;;;9.60;99.90;;;;;;7746161;28;20190;-90
2023/12/25 13:43:05;;;;;;;2.13;1.80;;;9.60;99.90;;;;;;7747043;28;20235;-90
2023/12/25 13:46:51;;;;;;;2.33;1.90;;;9.60;99.90;;;;;;7755855;28;20574;-87
2023/12/25 13:50:37;;;;;;;1.67;1.10;;;9.60;99.90;;;;;;7747323;28;20172;-87
2023/12/25 13:54:23;;;;;;;1.80;1.70;;;9.60;99.90;;;;;;7750022;28;20204;-88
2023/12/25 13:58:09;;;;;;;5.20;3.63;;;9.60;99.90;;;;;;7746487;28;20176;-90
2023/12/25 14:01:55;;;;;;;3.27;2.20;;;9.70;99.90;;;;;;7745550;28;20596;-89
2023/12/25 14:05:40;;;;;;;2.63;1.80;;;9.70;99.90;;;;;;7752672;28;20207;-86
2023/12/25 14:09:26;;;;;;;2.50;1.20;;;9.70;99.90;;;;;;7746021;28;20884;-88
2023/12/25 14:13:18;;;;;;;1.47;1.03;;;9.60;99.90;;;;;;7737809;28;20217;-90
2023/12/25 14:17:04;;;;;;;1.80;1.50;;;9.70;99.90;;;;;;7745632;28;20188;-87
2023/12/25 14:20:50;;;;;;;3.23;2.70;;;9.70;99.90;;;;;;7747701;28;20187;-89
2023/12/25 14:24:38;;;;;;;1.50;1.40;;;9.60;99.90;;;;;;7745052;28;20199;-89
2023/12/25 14:28:24;;;;;;;1.30;1.10;;;9.70;99.90;;;;;;7736745;28;20205;-89
2023/12/25 14:32:09;;;;;;;1.93;1.33;;;9.70;99.90;;;;;;7759066;28;20655;-90
2023/12/25 14:35:55;;;;;;;3.47;2.70;;;9.70;99.90;;;;;;7755229;28;20215;-89
2023/12/25 14:39:41;;;;;;;2.80;2.47;;;9.70;99.90;;;;;;7746617;28;20328;-89
2023/12/25 14:43:27;;;;;;;4.03;3.60;;;9.60;99.90;;;;;;7751451;28;20207;-90
2023/12/25 14:47:12;;;;;;;3.10;2.80;;;9.60;99.90;;;;;;7745337;28;20223;-89
2023/12/25 14:51:03;;;;;;;3.53;3.00;;;9.70;99.90;;;;;;7742604;28;20183;-90
2023/12/25 14:54:52;;;;;;;1.40;1.30;;;9.60;99.90;;;;;;7735375;28;20207;-89
2023/12/25 14:58:37;;;;;;;2.97;2.20;;;9.60;99.90;;;;;;7757022;28;20267;-90
2023/12/25 15:02:23;;;;;;;1.33;1.17;;;9.60;99.90;;;;;;7752334;28;20199;-90
2023/12/25 15:06:10;;;;;;;1.87;1.20;;;9.60;99.90;;;;;;7749160;28;20665;-89
2023/12/25 15:09:56;;;;;;;2.80;1.63;;;9.50;99.90;;;;;;7748733;28;20615;-89
2023/12/25 15:13:42;;;;;;;2.03;1.60;;;9.50;99.90;;;;;;7744115;28;20220;-89
2023/12/25 15:17:27;;;;;;;1.97;1.77;;;9.60;99.90;;;;;;7744106;28;20188;-91
2023/12/25 15:21:13;;;;;;;2.97;2.30;;;9.60;99.90;;;;;;7740333;28;20189;-89
2023/12/25 15:24:59;;;;;;;1.60;1.40;;;9.60;99.90;;;;;;7734831;28;20216;-90
2023/12/25 15:28:44;;;;;;;1.63;1.33;;;9.60;99.90;;;;;;7744643;28;20206;-89
2023/12/25 15:32:31;;;;;;;3.30;1.80;;;9.60;99.90;;;;;;7753666;28;20180;-89
2023/12/25 15:36:21;;;;;;;5.82;3.58;;;9.60;99.90;;;;;;7743339;28;20432;-83
2023/12/25 15:40:07;;;;;;;8.33;4.93;;;9.70;99.90;;;;;;7748429;28;20192;-85
2023/12/25 15:43:54;;;;;;;2.53;2.20;;;9.60;99.90;;;;;;7745729;28;20579;-85
2023/12/25 15:47:39;;;;;;;3.27;2.30;;;9.60;99.90;;;;;;7753902;28;20199;-90
2023/12/25 15:51:26;;;;;;;2.10;1.90;;;9.50;99.90;;;;;;7748894;28;20665;-90
2023/12/25 15:55:14;;;;;;;2.73;1.80;;;9.50;99.90;;;;;;7743939;28;21011;-91
2023/12/25 15:59:00;;;;;;;3.43;1.97;;;9.50;99.90;;;;;;7750001;28;20192;-91
2023/12/25 16:02:46;;;;;;;2.07;1.87;;;9.50;99.90;;;;;;7750706;28;20203;-90
2023/12/25 16:06:31;;;;;;;2.67;2.40;;;9.50;99.90;;;;;;7743245;28;20366;-90
2023/12/25 16:10:17;;;;;;;2.93;2.50;;;9.60;99.90;;;;;;7744587;28;20180;-89
2023/12/25 16:14:03;;;;;;;2.60;2.40;;;9.50;99.90;;;;;;7745125;28;20208;-90
2023/12/25 16:17:49;;;;;;;3.57;2.63;;;9.50;99.90;;;;;;7741911;28;20184;-90
2023/12/25 16:21:37;;;;;;;8.90;4.90;;;9.50;99.90;;;;;;7740998;28;20184;-91
2023/12/25 16:25:23;;;;;;;3.10;1.60;;;9.50;99.90;;;;;;7728321;28;20741;-90
2023/12/25 16:29:08;;;;;;;4.17;1.90;;;9.40;99.90;;;;;;7746377;28;20604;-89
2023/12/25 16:32:55;;;;;;;2.07;1.27;;;9.40;99.90;;;;;;7747424;28;20180;-90
2023/12/25 16:36:41;;;;;;;1.60;1.50;;;9.40;99.90;;;;;;7765433;28;20183;-89
2023/12/25 16:40:30;;;;;;;2.40;2.20;;;9.40;99.90;;;;;;7755727;28;20218;-91
2023/12/25 16:44:16;;;;;;;14.33;7.40;;;9.40;99.90;;;;;;7746046;28;20212;-91
2023/12/25 16:48:01;;;;;;;16.50;9.17;;;9.40;99.90;;;;;;7746971;28;20207;-91
2023/12/25 16:51:48;;;;;;;11.80;7.80;;;9.40;99.90;;;;;;7753520;28;20176;-90
2023/12/25 16:55:34;;;;;;;7.27;5.30;;;9.40;99.90;;;;;;7744379;28;20211;-90
2023/12/25 16:59:19;;;;;;;8.70;3.60;;;9.40;99.90;;;;;;7746242;28;20184;-90
2023/12/25 17:03:05;;;;;;;3.80;3.00;;;9.40;99.90;;;;;;7741544;28;20199;-91
2023/12/25 17:06:53;;;;;;;2.93;1.90;;;9.40;99.90;;;;;;7746372;28;20665;-91
2023/12/25 17:10:38;;;;;;;4.27;2.30;;;9.40;99.90;;;;;;7761592;28;20263;-91
2023/12/25 17:14:25;;;;;;;2.13;1.93;;;9.40;99.90;;;;;;7737984;28;20224;-91
2023/12/25 17:18:11;;;;;;;2.90;2.27;;;9.40;99.90;;;;;;7743964;28;20666;-91
2023/12/25 17:21:59;;;;;;;2.30;2.10;;;9.30;99.90;;;;;;7742705;28;20628;-90
2023/12/25 17:25:45;;;;;;;2.77;2.23;;;9.40;99.90;;;;;;7745495;28;20630;-90
2023/12/25 17:29:30;;;;;;;3.03;2.73;;;9.40;99.90;;;;;;7747006;28;20176;-90
2023/12/25 17:33:16;;;;;;;2.67;2.30;;;9.40;99.90;;;;;;7757744;28;20204;-90
2023/12/25 17:37:02;;;;;;;3.90;2.10;;;9.40;99.90;;;;;;7747149;28;20218;-91
2023/12/25 17:40:48;;;;;;;2.00;1.80;;;9.40;99.90;;;;;;7758914;28;20195;-90
2023/12/25 17:44:34;;;;;;;2.30;2.10;;;9.40;99.90;;;;;;7749267;28;20240;-90
2023/12/25 17:48:22;;;;;;;3.37;1.50;;;9.40;99.90;;;;;;7745036;28;20580;-90
2023/12/25 17:52:09;;;;;;;1.90;1.70;;;9.40;99.90;;;;;;7745330;28;20180;-89
2023/12/25 17:55:55;;;;;;;3.20;2.30;;;9.40;99.90;;;;;;7743049;28;20286;-89
2023/12/25 17:59:40;;;;;;;2.13;1.90;;;9.40;99.90;;;;;;7740612;28;20219;-89
2023/12/25 18:03:26;;;;;;;4.03;2.17;;;9.30;99.90;;;;;;7745222;28;20299;-89
2023/12/25 18:07:15;;;;;;;1.60;1.50;;;9.30;99.90;;;;;;7749706;28;20583;-88
2023/12/25 18:11:01;;;;;;;2.07;1.60;;;9.30;99.90;;;;;;7737708;28;20219;-90
2023/12/25 18:14:47;;;;;;;2.37;1.90;;;9.30;99.90;;;;;;7754214;28;20219;-89
2023/12/25 18:18:35;;;;;;;2.77;2.20;;;9.30;99.90;;;;;;7766260;28;20688;-90
2023/12/25 18:22:21;;;;;;;2.13;1.73;;;9.30;99.90;;;;;;7745132;28;20184;-90
2023/12/25 18:26:18;;;;;;;2.47;2.10;;;9.30;99.90;;;;;;7745049;28;20223;-90
2023/12/25 18:30:05;;;;;;;3.20;2.77;;;9.30;99.90;;;;;;7744429;28;20187;-89
2023/12/25 18:33:51;;;;;;;3.83;2.73;;;9.30;99.90;;;;;;7743943;28;20196;-90
2023/12/25 18:37:36;;;;;;;4.90;2.73;;;9.30;99.90;;;;;;7762710;28;20199;-87
2023/12/25 18:41:22;;;;;;;3.93;2.93;;;9.30;99.90;;;;;;7744704;28;20188;-91
2023/12/25 18:45:08;;;;;;;3.57;2.83;;;9.30;99.90;;;;;;7745511;28;20214;-91
2023/12/25 18:48:54;;;;;;;4.07;2.40;;;9.30;99.90;;;;;;7743971;28;20247;-90
2023/12/25 18:52:40;;;;;;;4.23;2.87;;;9.30;99.90;;;;;;7746431;28;20180;-90
2023/12/25 18:56:26;;;;;;;3.70;2.83;;;9.40;99.90;;;;;;7740622;28;20211;-90
2023/12/25 19:00:12;;;;;;;3.93;3.00;;;9.30;99.90;;;;;;7758447;28;20182;-90
2023/12/25 19:04:08;;;;;;;3.80;3.00;;;9.30;99.90;;;;;;7743642;28;20215;-91
2023/12/25 19:07:55;;;;;;;3.73;3.13;;;9.40;99.90;;;;;;7753323;28;20194;-89
2023/12/25 19:11:41;;;;;;;2.87;2.50;;;9.40;99.90;;;;;;7749127;28;20172;-90
2023/12/25 19:15:27;;;;;;;20.33;8.63;;;9.40;99.90;;;;;;7755790;28;20222;-90
2023/12/25 19:19:12;;;;;;;8.63;4.43;;;9.40;99.90;;;;;;7735015;28;20191;-90
2023/12/25 19:22:59;;;;;;;4.57;2.90;;;9.40;99.90;;;;;;7750988;28;20176;-90
2023/12/25 19:26:45;;;;;;;9.00;6.90;;;9.40;99.90;;;;;;7758935;28;20274;-91
2023/12/25 19:30:31;;;;;;;6.50;5.20;;;9.40;99.90;;;;;;7761234;28;20180;-90
2023/12/25 19:34:17;;;;;;;7.10;5.37;;;9.40;99.90;;;;;;7756825;28;20196;-90
2023/12/25 19:38:03;;;;;;;7.93;4.93;;;9.40;99.90;;;;;;7766178;28;20673;-90
2023/12/25 19:41:48;;;;;;;10.20;5.93;;;9.40;99.90;;;;;;7755179;28;20662;-91